sensor_id;sensor_type;location;lat;lon;timestamp;P1;durP1;ratioP1;P2;durP2;ratioP2
10416;SDS011;62605;49.432;8.680;2022-09-03T00:01:36;0.70;;;0.70;;
10416;SDS011;62605;49.432;8.680;2022-09-03T00:04:09;0.60;;;0.60;;
10416;SDS011;62605;49.432;8.680;2022-09-03T00:06:44;1.08;;;0.88;;
10416;SDS011;62605;49.432;8.680;2022-09-03T00:09:18;1.17;;;0.70;;
10416;SDS011;62605;49.432;8.680;2022-09-03T00:11:51;0.90;;;0.90;;
10416;SDS011;62605;49.432;8.680;2022-09-03T00:14:27;0.80;;;0.80;;
10416;SDS011;62605;49.432;8.680;2022-09-03T00:17:04;2.00;;;0.90;;
10416;SDS011;62605;49.432;8.680;2022-09-03T00:19:37;1.27;;;0.93;;
10416;SDS011;62605;49.432;8.680;2022-09-03T00:22:11;1.50;;;0.90;;
10416;SDS011;62605;49.432;8.680;2022-09-03T00:24:43;0.85;;;0.85;;
10416;SDS011;62605;49.432;8.680;2022-09-03T00:27:13;0.73;;;0.70;;
10416;SDS011;62605;49.432;8.680;2022-09-03T00:29:45;1.17;;;0.80;;
10416;SDS011;62605;49.432;8.680;2022-09-03T00:32:17;0.60;;;0.60;;
10416;SDS011;62605;49.432;8.680;2022-09-03T00:34:51;1.88;;;1.00;;
10416;SDS011;62605;49.432;8.680;2022-09-03T00:37:27;0.60;;;0.60;;
10416;SDS011;62605;49.432;8.680;2022-09-03T00:39:54;2.33;;;0.75;;
10416;SDS011;62605;49.432;8.680;2022-09-03T00:42:29;0.75;;;0.75;;
10416;SDS011;62605;49.432;8.680;2022-09-03T00:45:10;3.08;;;0.82;;
10416;SDS011;62605;49.432;8.680;2022-09-03T00:47:53;0.57;;;0.57;;
10416;SDS011;62605;49.432;8.680;2022-09-03T00:50:33;3.13;;;1.08;;
10416;SDS011;62605;49.432;8.680;2022-09-03T00:53:11;0.80;;;0.80;;
10416;SDS011;62605;49.432;8.680;2022-09-03T00:55:48;1.15;;;0.93;;
10416;SDS011;62605;49.432;8.680;2022-09-03T00:58:29;0.95;;;0.93;;
10416;SDS011;62605;49.432;8.680;2022-09-03T01:01:17;2.58;;;1.05;;
10416;SDS011;62605;49.432;8.680;2022-09-03T01:03:52;0.80;;;0.80;;
10416;SDS011;62605;49.432;8.680;2022-09-03T01:06:29;1.75;;;0.70;;
10416;SDS011;62605;49.432;8.680;2022-09-03T01:09:11;0.80;;;0.77;;
10416;SDS011;62605;49.432;8.680;2022-09-03T01:11:53;0.80;;;0.80;;
10416;SDS011;62605;49.432;8.680;2022-09-03T01:14:31;0.70;;;0.70;;
10416;SDS011;62605;49.432;8.680;2022-09-03T01:17:11;0.70;;;0.70;;
10416;SDS011;62605;49.432;8.680;2022-09-03T01:19:50;0.82;;;0.82;;
10416;SDS011;62605;49.432;8.680;2022-09-03T01:22:35;1.15;;;0.88;;
10416;SDS011;62605;49.432;8.680;2022-09-03T01:25:27;0.90;;;0.90;;
10416;SDS011;62605;49.432;8.680;2022-09-03T01:28:09;1.20;;;0.98;;
10416;SDS011;62605;49.432;8.680;2022-09-03T01:30:46;0.65;;;0.65;;
10416;SDS011;62605;49.432;8.680;2022-09-03T01:33:21;0.82;;;0.82;;
10416;SDS011;62605;49.432;8.680;2022-09-03T01:35:56;0.70;;;0.70;;
10416;SDS011;62605;49.432;8.680;2022-09-03T01:38:31;1.15;;;0.85;;
10416;SDS011;62605;49.432;8.680;2022-09-03T01:41:07;0.90;;;0.77;;
10416;SDS011;62605;49.432;8.680;2022-09-03T01:44:01;0.70;;;0.70;;
10416;SDS011;62605;49.432;8.680;2022-09-03T01:46:41;0.80;;;0.80;;
10416;SDS011;62605;49.432;8.680;2022-09-03T01:49:13;0.98;;;0.70;;
10416;SDS011;62605;49.432;8.680;2022-09-03T01:51:47;0.88;;;0.88;;
10416;SDS011;62605;49.432;8.680;2022-09-03T01:54:24;0.82;;;0.70;;
10416;SDS011;62605;49.432;8.680;2022-09-03T01:57:13;2.42;;;0.90;;
10416;SDS011;62605;49.432;8.680;2022-09-03T01:59:54;0.80;;;0.80;;
10416;SDS011;62605;49.432;8.680;2022-09-03T02:02:25;0.90;;;0.82;;
10416;SDS011;62605;49.432;8.680;2022-09-03T02:04:55;1.65;;;1.00;;
10416;SDS011;62605;49.432;8.680;2022-09-03T02:07:25;1.50;;;0.90;;
10416;SDS011;62605;49.432;8.680;2022-09-03T02:09:58;0.95;;;0.80;;
10416;SDS011;62605;49.432;8.680;2022-09-03T02:12:25;1.27;;;1.08;;
10416;SDS011;62605;49.432;8.680;2022-09-03T02:14:58;0.70;;;0.70;;
10416;SDS011;62605;49.432;8.680;2022-09-03T02:17:28;1.20;;;1.08;;
10416;SDS011;62605;49.432;8.680;2022-09-03T02:19:55;0.85;;;0.70;;
10416;SDS011;62605;49.432;8.680;2022-09-03T02:22:24;1.25;;;1.13;;
10416;SDS011;62605;49.432;8.680;2022-09-03T02:24:51;0.80;;;0.80;;
10416;SDS011;62605;49.432;8.680;2022-09-03T02:27:18;2.00;;;1.00;;
10416;SDS011;62605;49.432;8.680;2022-09-03T02:29:45;0.90;;;0.90;;
10416;SDS011;62605;49.432;8.680;2022-09-03T02:32:15;1.00;;;0.80;;
10416;SDS011;62605;49.432;8.680;2022-09-03T02:34:42;0.75;;;0.75;;
10416;SDS011;62605;49.432;8.680;2022-09-03T02:37:12;1.15;;;0.90;;
10416;SDS011;62605;49.432;8.680;2022-09-03T02:39:40;0.90;;;0.82;;
10416;SDS011;62605;49.432;8.680;2022-09-03T02:42:08;1.15;;;0.90;;
10416;SDS011;62605;49.432;8.680;2022-09-03T02:44:37;0.80;;;0.80;;
10416;SDS011;62605;49.432;8.680;2022-09-03T02:47:15;1.17;;;0.70;;
10416;SDS011;62605;49.432;8.680;2022-09-03T02:49:45;0.88;;;0.88;;
10416;SDS011;62605;49.432;8.680;2022-09-03T02:52:12;1.33;;;0.80;;
10416;SDS011;62605;49.432;8.680;2022-09-03T02:54:41;1.27;;;0.88;;
10416;SDS011;62605;49.432;8.680;2022-09-03T02:57:10;0.77;;;0.77;;
10416;SDS011;62605;49.432;8.680;2022-09-03T02:59:39;4.55;;;0.90;;
10416;SDS011;62605;49.432;8.680;2022-09-03T03:02:08;0.85;;;0.85;;
10416;SDS011;62605;49.432;8.680;2022-09-03T03:04:37;1.10;;;1.00;;
10416;SDS011;62605;49.432;8.680;2022-09-03T03:07:04;1.40;;;0.90;;
10416;SDS011;62605;49.432;8.680;2022-09-03T03:09:31;1.25;;;0.82;;
10416;SDS011;62605;49.432;8.680;2022-09-03T03:11:58;2.15;;;0.70;;
10416;SDS011;62605;49.432;8.680;2022-09-03T03:14:25;1.17;;;0.77;;
10416;SDS011;62605;49.432;8.680;2022-09-03T03:16:52;0.80;;;0.80;;
10416;SDS011;62605;49.432;8.680;2022-09-03T03:19:19;0.90;;;0.90;;
10416;SDS011;62605;49.432;8.680;2022-09-03T03:21:48;0.82;;;0.82;;
10416;SDS011;62605;49.432;8.680;2022-09-03T03:24:15;0.60;;;0.60;;
10416;SDS011;62605;49.432;8.680;2022-09-03T03:26:42;0.80;;;0.80;;
10416;SDS011;62605;49.432;8.680;2022-09-03T03:29:13;1.23;;;0.98;;
10416;SDS011;62605;49.432;8.680;2022-09-03T03:31:42;0.93;;;0.93;;
10416;SDS011;62605;49.432;8.680;2022-09-03T03:34:09;0.90;;;0.80;;
10416;SDS011;62605;49.432;8.680;2022-09-03T03:36:36;0.75;;;0.75;;
10416;SDS011;62605;49.432;8.680;2022-09-03T03:39:05;1.23;;;0.80;;
10416;SDS011;62605;49.432;8.680;2022-09-03T03:41:32;1.27;;;0.93;;
10416;SDS011;62605;49.432;8.680;2022-09-03T03:44:01;1.88;;;1.13;;
10416;SDS011;62605;49.432;8.680;2022-09-03T03:46:30;0.60;;;0.60;;
10416;SDS011;62605;49.432;8.680;2022-09-03T03:48:58;0.80;;;0.80;;
10416;SDS011;62605;49.432;8.680;2022-09-03T03:51:26;1.25;;;0.95;;
10416;SDS011;62605;49.432;8.680;2022-09-03T03:53:55;2.80;;;1.35;;
10416;SDS011;62605;49.432;8.680;2022-09-03T03:56:24;1.23;;;1.13;;
10416;SDS011;62605;49.432;8.680;2022-09-03T03:58:52;1.13;;;1.00;;
10416;SDS011;62605;49.432;8.680;2022-09-03T04:01:21;1.30;;;1.00;;
10416;SDS011;62605;49.432;8.680;2022-09-03T04:03:49;1.58;;;0.93;;
10416;SDS011;62605;49.432;8.680;2022-09-03T04:06:18;2.03;;;1.13;;
10416;SDS011;62605;49.432;8.680;2022-09-03T04:08:46;0.75;;;0.75;;
10416;SDS011;62605;49.432;8.680;2022-09-03T04:11:15;2.92;;;1.05;;
10416;SDS011;62605;49.432;8.680;2022-09-03T04:13:45;0.98;;;0.93;;
10416;SDS011;62605;49.432;8.680;2022-09-03T04:16:13;1.20;;;1.00;;
10416;SDS011;62605;49.432;8.680;2022-09-03T04:18:42;0.95;;;0.85;;
10416;SDS011;62605;49.432;8.680;2022-09-03T04:21:10;1.38;;;1.15;;
10416;SDS011;62605;49.432;8.680;2022-09-03T04:23:40;0.90;;;0.90;;
10416;SDS011;62605;49.432;8.680;2022-09-03T04:26:10;1.00;;;1.00;;
10416;SDS011;62605;49.432;8.680;2022-09-03T04:28:39;4.18;;;0.85;;
10416;SDS011;62605;49.432;8.680;2022-09-03T04:31:08;0.85;;;0.75;;
10416;SDS011;62605;49.432;8.680;2022-09-03T04:33:37;2.30;;;1.00;;
10416;SDS011;62605;49.432;8.680;2022-09-03T04:36:05;1.25;;;0.90;;
10416;SDS011;62605;49.432;8.680;2022-09-03T04:38:34;2.97;;;1.20;;
10416;SDS011;62605;49.432;8.680;2022-09-03T04:41:03;0.73;;;0.73;;
10416;SDS011;62605;49.432;8.680;2022-09-03T04:43:30;0.70;;;0.70;;
10416;SDS011;62605;49.432;8.680;2022-09-03T04:45:58;1.33;;;0.90;;
10416;SDS011;62605;49.432;8.680;2022-09-03T04:48:27;0.90;;;0.90;;
10416;SDS011;62605;49.432;8.680;2022-09-03T04:51:00;1.48;;;0.93;;
10416;SDS011;62605;49.432;8.680;2022-09-03T04:53:30;0.85;;;0.85;;
10416;SDS011;62605;49.432;8.680;2022-09-03T04:55:58;1.65;;;1.23;;
10416;SDS011;62605;49.432;8.680;2022-09-03T04:58:26;0.88;;;0.88;;
10416;SDS011;62605;49.432;8.680;2022-09-03T05:00:53;1.00;;;0.90;;
10416;SDS011;62605;49.432;8.680;2022-09-03T05:03:20;1.23;;;0.85;;
10416;SDS011;62605;49.432;8.680;2022-09-03T05:05:53;2.05;;;0.93;;
10416;SDS011;62605;49.432;8.680;2022-09-03T05:08:20;0.70;;;0.70;;
10416;SDS011;62605;49.432;8.680;2022-09-03T05:10:48;0.80;;;0.80;;
10416;SDS011;62605;49.432;8.680;2022-09-03T05:13:15;0.80;;;0.80;;
10416;SDS011;62605;49.432;8.680;2022-09-03T05:15:42;2.20;;;0.82;;
10416;SDS011;62605;49.432;8.680;2022-09-03T05:18:09;1.38;;;1.00;;
10416;SDS011;62605;49.432;8.680;2022-09-03T05:20:36;1.52;;;1.20;;
10416;SDS011;62605;49.432;8.680;2022-09-03T05:23:04;1.00;;;1.00;;
10416;SDS011;62605;49.432;8.680;2022-09-03T05:25:32;0.95;;;0.90;;
10416;SDS011;62605;49.432;8.680;2022-09-03T05:27:59;2.05;;;1.05;;
10416;SDS011;62605;49.432;8.680;2022-09-03T05:30:27;1.85;;;0.90;;
10416;SDS011;62605;49.432;8.680;2022-09-03T05:32:54;1.17;;;1.10;;
10416;SDS011;62605;49.432;8.680;2022-09-03T05:35:22;0.90;;;0.90;;
10416;SDS011;62605;49.432;8.680;2022-09-03T05:37:50;1.02;;;0.93;;
10416;SDS011;62605;49.432;8.680;2022-09-03T05:40:22;1.02;;;0.95;;
10416;SDS011;62605;49.432;8.680;2022-09-03T05:42:53;1.20;;;0.95;;
10416;SDS011;62605;49.432;8.680;2022-09-03T05:45:23;0.90;;;0.90;;
10416;SDS011;62605;49.432;8.680;2022-09-03T05:47:50;0.90;;;0.90;;
10416;SDS011;62605;49.432;8.680;2022-09-03T05:50:17;2.33;;;0.80;;
10416;SDS011;62605;49.432;8.680;2022-09-03T05:52:44;0.98;;;0.88;;
10416;SDS011;62605;49.432;8.680;2022-09-03T05:55:11;0.80;;;0.80;;
10416;SDS011;62605;49.432;8.680;2022-09-03T05:57:40;4.88;;;1.42;;
10416;SDS011;62605;49.432;8.680;2022-09-03T06:00:08;3.75;;;1.20;;
10416;SDS011;62605;49.432;8.680;2022-09-03T06:02:36;1.70;;;1.10;;
10416;SDS011;62605;49.432;8.680;2022-09-03T06:05:04;2.83;;;1.20;;
10416;SDS011;62605;49.432;8.680;2022-09-03T06:07:32;1.05;;;1.00;;
10416;SDS011;62605;49.432;8.680;2022-09-03T06:09:59;2.05;;;0.90;;
10416;SDS011;62605;49.432;8.680;2022-09-03T06:12:26;1.02;;;0.95;;
10416;SDS011;62605;49.432;8.680;2022-09-03T06:14:54;0.93;;;0.93;;
10416;SDS011;62605;49.432;8.680;2022-09-03T06:17:21;3.78;;;1.02;;
10416;SDS011;62605;49.432;8.680;2022-09-03T06:19:48;1.33;;;1.23;;
10416;SDS011;62605;49.432;8.680;2022-09-03T06:22:15;1.67;;;1.35;;
10416;SDS011;62605;49.432;8.680;2022-09-03T06:24:42;1.10;;;1.00;;
10416;SDS011;62605;49.432;8.680;2022-09-03T06:27:09;2.08;;;1.20;;
10416;SDS011;62605;49.432;8.680;2022-09-03T06:29:37;1.27;;;1.17;;
10416;SDS011;62605;49.432;8.680;2022-09-03T06:32:05;1.33;;;1.20;;
10416;SDS011;62605;49.432;8.680;2022-09-03T06:34:32;0.93;;;0.93;;
10416;SDS011;62605;49.432;8.680;2022-09-03T06:36:59;1.20;;;1.10;;
10416;SDS011;62605;49.432;8.680;2022-09-03T06:39:26;2.13;;;1.25;;
10416;SDS011;62605;49.432;8.680;2022-09-03T06:41:54;1.83;;;1.30;;
10416;SDS011;62605;49.432;8.680;2022-09-03T06:44:21;1.65;;;1.40;;
10416;SDS011;62605;49.432;8.680;2022-09-03T06:46:51;1.83;;;1.20;;
10416;SDS011;62605;49.432;8.680;2022-09-03T06:49:19;2.08;;;1.60;;
10416;SDS011;62605;49.432;8.680;2022-09-03T06:51:47;1.73;;;1.55;;
10416;SDS011;62605;49.432;8.680;2022-09-03T06:54:14;1.88;;;1.30;;
10416;SDS011;62605;49.432;8.680;2022-09-03T06:56:41;7.72;;;1.50;;
10416;SDS011;62605;49.432;8.680;2022-09-03T06:59:09;1.38;;;1.27;;
10416;SDS011;62605;49.432;8.680;2022-09-03T07:01:39;2.13;;;1.20;;
10416;SDS011;62605;49.432;8.680;2022-09-03T07:04:08;1.00;;;1.00;;
10416;SDS011;62605;49.432;8.680;2022-09-03T07:06:37;1.17;;;1.08;;
10416;SDS011;62605;49.432;8.680;2022-09-03T07:09:06;1.35;;;1.25;;
10416;SDS011;62605;49.432;8.680;2022-09-03T07:11:34;2.25;;;1.40;;
10416;SDS011;62605;49.432;8.680;2022-09-03T07:14:03;1.42;;;1.33;;
10416;SDS011;62605;49.432;8.680;2022-09-03T07:16:31;1.50;;;1.40;;
10416;SDS011;62605;49.432;8.680;2022-09-03T07:18:59;2.95;;;1.60;;
10416;SDS011;62605;49.432;8.680;2022-09-03T07:21:28;1.77;;;1.50;;
10416;SDS011;62605;49.432;8.680;2022-09-03T07:23:59;3.25;;;1.60;;
10416;SDS011;62605;49.432;8.680;2022-09-03T07:26:27;1.38;;;1.35;;
10416;SDS011;62605;49.432;8.680;2022-09-03T07:28:56;1.52;;;1.25;;
10416;SDS011;62605;49.432;8.680;2022-09-03T07:31:26;2.13;;;1.38;;
10416;SDS011;62605;49.432;8.680;2022-09-03T07:33:55;1.60;;;1.50;;
10416;SDS011;62605;49.432;8.680;2022-09-03T07:36:24;1.58;;;1.48;;
10416;SDS011;62605;49.432;8.680;2022-09-03T07:38:53;1.77;;;1.45;;
10416;SDS011;62605;49.432;8.680;2022-09-03T07:41:23;2.35;;;1.58;;
10416;SDS011;62605;49.432;8.680;2022-09-03T07:43:52;4.32;;;1.95;;
10416;SDS011;62605;49.432;8.680;2022-09-03T07:46:20;1.92;;;1.60;;
10416;SDS011;62605;49.432;8.680;2022-09-03T07:48:48;2.03;;;1.90;;
10416;SDS011;62605;49.432;8.680;2022-09-03T07:51:17;1.63;;;1.52;;
10416;SDS011;62605;49.432;8.680;2022-09-03T07:53:45;1.60;;;1.48;;
10416;SDS011;62605;49.432;8.680;2022-09-03T07:56:13;1.80;;;1.70;;
10416;SDS011;62605;49.432;8.680;2022-09-03T07:58:42;1.67;;;1.58;;
10416;SDS011;62605;49.432;8.680;2022-09-03T08:01:10;3.45;;;2.00;;
10416;SDS011;62605;49.432;8.680;2022-09-03T08:03:40;1.50;;;1.40;;
10416;SDS011;62605;49.432;8.680;2022-09-03T08:06:09;2.30;;;1.75;;
10416;SDS011;62605;49.432;8.680;2022-09-03T08:08:37;3.25;;;1.85;;
10416;SDS011;62605;49.432;8.680;2022-09-03T08:11:05;1.73;;;1.63;;
10416;SDS011;62605;49.432;8.680;2022-09-03T08:13:35;2.22;;;1.63;;
10416;SDS011;62605;49.432;8.680;2022-09-03T08:16:04;1.92;;;1.60;;
10416;SDS011;62605;49.432;8.680;2022-09-03T08:18:32;2.00;;;1.80;;
10416;SDS011;62605;49.432;8.680;2022-09-03T08:21:02;2.35;;;1.85;;
10416;SDS011;62605;49.432;8.680;2022-09-03T08:23:36;6.13;;;1.60;;
10416;SDS011;62605;49.432;8.680;2022-09-03T08:26:09;1.48;;;1.35;;
10416;SDS011;62605;49.432;8.680;2022-09-03T08:28:37;1.77;;;1.67;;
10416;SDS011;62605;49.432;8.680;2022-09-03T08:31:06;2.30;;;1.70;;
10416;SDS011;62605;49.432;8.680;2022-09-03T08:33:35;2.25;;;1.70;;
10416;SDS011;62605;49.432;8.680;2022-09-03T08:36:03;2.47;;;1.60;;
10416;SDS011;62605;49.432;8.680;2022-09-03T08:38:31;2.38;;;1.50;;
10416;SDS011;62605;49.432;8.680;2022-09-03T08:41:03;2.50;;;1.85;;
10416;SDS011;62605;49.432;8.680;2022-09-03T08:43:32;1.75;;;1.65;;
10416;SDS011;62605;49.432;8.680;2022-09-03T08:46:20;2.85;;;2.08;;
10416;SDS011;62605;49.432;8.680;2022-09-03T08:48:51;2.28;;;1.80;;
10416;SDS011;62605;49.432;8.680;2022-09-03T08:51:18;1.70;;;1.60;;
10416;SDS011;62605;49.432;8.680;2022-09-03T08:53:52;3.38;;;1.60;;
10416;SDS011;62605;49.432;8.680;2022-09-03T08:56:23;1.95;;;1.75;;
10416;SDS011;62605;49.432;8.680;2022-09-03T08:58:54;2.45;;;1.48;;
10416;SDS011;62605;49.432;8.680;2022-09-03T09:01:25;1.60;;;1.50;;
10416;SDS011;62605;49.432;8.680;2022-09-03T09:04:02;4.70;;;2.10;;
10416;SDS011;62605;49.432;8.680;2022-09-03T09:06:38;2.30;;;1.70;;
10416;SDS011;62605;49.432;8.680;2022-09-03T09:09:22;1.80;;;1.70;;
10416;SDS011;62605;49.432;8.680;2022-09-03T09:12:00;2.20;;;2.00;;
10416;SDS011;62605;49.432;8.680;2022-09-03T09:14:39;2.38;;;1.75;;
10416;SDS011;62605;49.432;8.680;2022-09-03T09:17:17;1.70;;;1.60;;
10416;SDS011;62605;49.432;8.680;2022-09-03T09:19:58;1.70;;;1.60;;
10416;SDS011;62605;49.432;8.680;2022-09-03T09:22:33;1.90;;;1.80;;
10416;SDS011;62605;49.432;8.680;2022-09-03T09:25:06;1.83;;;1.65;;
10416;SDS011;62605;49.432;8.680;2022-09-03T09:27:39;3.10;;;1.90;;
10416;SDS011;62605;49.432;8.680;2022-09-03T09:30:16;2.28;;;1.90;;
10416;SDS011;62605;49.432;8.680;2022-09-03T09:32:45;2.55;;;2.30;;
10416;SDS011;62605;49.432;8.680;2022-09-03T09:35:13;2.60;;;2.13;;
10416;SDS011;62605;49.432;8.680;2022-09-03T09:37:46;1.85;;;1.75;;
10416;SDS011;62605;49.432;8.680;2022-09-03T09:40:21;2.83;;;2.30;;
10416;SDS011;62605;49.432;8.680;2022-09-03T09:43:04;2.60;;;2.40;;
10416;SDS011;62605;49.432;8.680;2022-09-03T09:45:35;2.15;;;2.05;;
10416;SDS011;62605;49.432;8.680;2022-09-03T09:48:08;2.30;;;2.10;;
10416;SDS011;62605;49.432;8.680;2022-09-03T09:50:42;3.60;;;1.45;;
10416;SDS011;62605;49.432;8.680;2022-09-03T09:53:10;1.83;;;1.67;;
10416;SDS011;62605;49.432;8.680;2022-09-03T09:55:49;2.03;;;1.83;;
10416;SDS011;62605;49.432;8.680;2022-09-03T09:58:18;1.70;;;1.60;;
10416;SDS011;62605;49.432;8.680;2022-09-03T10:00:54;3.17;;;1.92;;
10416;SDS011;62605;49.432;8.680;2022-09-03T10:03:24;2.45;;;1.90;;
10416;SDS011;62605;49.432;8.680;2022-09-03T10:06:00;2.47;;;1.60;;
10416;SDS011;62605;49.432;8.680;2022-09-03T10:08:51;1.80;;;1.70;;
10416;SDS011;62605;49.432;8.680;2022-09-03T10:11:30;2.40;;;2.08;;
10416;SDS011;62605;49.432;8.680;2022-09-03T10:14:01;2.05;;;1.58;;
10416;SDS011;62605;49.432;8.680;2022-09-03T10:16:30;2.60;;;1.73;;
10416;SDS011;62605;49.432;8.680;2022-09-03T10:19:08;1.52;;;1.42;;
10416;SDS011;62605;49.432;8.680;2022-09-03T10:21:42;1.90;;;1.60;;
10416;SDS011;62605;49.432;8.680;2022-09-03T10:24:23;2.28;;;1.95;;
10416;SDS011;62605;49.432;8.680;2022-09-03T10:27:04;1.75;;;1.63;;
10416;SDS011;62605;49.432;8.680;2022-09-03T10:29:35;2.03;;;1.70;;
10416;SDS011;62605;49.432;8.680;2022-09-03T10:32:08;1.70;;;1.60;;
10416;SDS011;62605;49.432;8.680;2022-09-03T10:34:49;2.13;;;1.60;;
10416;SDS011;62605;49.432;8.680;2022-09-03T10:37:28;1.52;;;1.42;;
10416;SDS011;62605;49.432;8.680;2022-09-03T10:42:59;4.22;;;1.70;;
10416;SDS011;62605;49.432;8.680;2022-09-03T10:45:35;1.58;;;1.48;;
10416;SDS011;62605;49.432;8.680;2022-09-03T10:48:23;2.35;;;1.90;;
10416;SDS011;62605;49.432;8.680;2022-09-03T10:51:05;2.20;;;2.00;;
10416;SDS011;62605;49.432;8.680;2022-09-03T10:53:51;2.72;;;1.70;;
10416;SDS011;62605;49.432;8.680;2022-09-03T10:56:31;1.77;;;1.67;;
10416;SDS011;62605;49.432;8.680;2022-09-03T10:59:10;1.70;;;1.60;;
10416;SDS011;62605;49.432;8.680;2022-09-03T11:01:54;1.40;;;1.30;;
10416;SDS011;62605;49.432;8.680;2022-09-03T11:04:35;1.60;;;1.20;;
10416;SDS011;62605;49.432;8.680;2022-09-03T11:07:12;1.23;;;1.13;;
10416;SDS011;62605;49.432;8.680;2022-09-03T11:09:40;1.40;;;1.30;;
10416;SDS011;62605;49.432;8.680;2022-09-03T11:12:12;1.38;;;1.27;;
10416;SDS011;62605;49.432;8.680;2022-09-03T11:14:48;3.88;;;1.23;;
10416;SDS011;62605;49.432;8.680;2022-09-03T11:17:20;1.35;;;1.23;;
10416;SDS011;62605;49.432;8.680;2022-09-03T11:19:52;1.60;;;1.50;;
10416;SDS011;62605;49.432;8.680;2022-09-03T11:22:26;1.58;;;1.38;;
10416;SDS011;62605;49.432;8.680;2022-09-03T11:24:55;2.38;;;1.65;;
10416;SDS011;62605;49.432;8.680;2022-09-03T11:27:29;4.22;;;2.60;;
10416;SDS011;62605;49.432;8.680;2022-09-03T11:30:01;1.27;;;1.20;;
10416;SDS011;62605;49.432;8.680;2022-09-03T11:32:35;1.50;;;1.40;;
10416;SDS011;62605;49.432;8.680;2022-09-03T11:35:14;1.65;;;1.55;;
10416;SDS011;62605;49.432;8.680;2022-09-03T11:37:50;1.52;;;1.42;;
10416;SDS011;62605;49.432;8.680;2022-09-03T11:40:19;1.83;;;1.67;;
10416;SDS011;62605;49.432;8.680;2022-09-03T11:43:04;2.03;;;1.90;;
10416;SDS011;62605;49.432;8.680;2022-09-03T11:45:34;1.85;;;1.75;;
10416;SDS011;62605;49.432;8.680;2022-09-03T11:48:15;1.85;;;1.55;;
10416;SDS011;62605;49.432;8.680;2022-09-03T11:50:51;4.78;;;3.65;;
10416;SDS011;62605;49.432;8.680;2022-09-03T11:53:24;6.13;;;4.60;;
10416;SDS011;62605;49.432;8.680;2022-09-03T11:55:54;2.50;;;2.10;;
10416;SDS011;62605;49.432;8.680;2022-09-03T11:58:25;1.40;;;1.30;;
10416;SDS011;62605;49.432;8.680;2022-09-03T12:00:57;1.23;;;1.10;;
10416;SDS011;62605;49.432;8.680;2022-09-03T12:03:26;1.60;;;1.48;;
10416;SDS011;62605;49.432;8.680;2022-09-03T12:06:07;2.88;;;1.30;;
10416;SDS011;62605;49.432;8.680;2022-09-03T12:08:59;1.55;;;1.45;;
10416;SDS011;62605;49.432;8.680;2022-09-03T12:11:47;1.70;;;1.08;;
10416;SDS011;62605;49.432;8.680;2022-09-03T12:14:26;1.75;;;1.40;;
10416;SDS011;62605;49.432;8.680;2022-09-03T12:17:14;4.18;;;1.60;;
10416;SDS011;62605;49.432;8.680;2022-09-03T12:19:49;1.30;;;1.20;;
10416;SDS011;62605;49.432;8.680;2022-09-03T12:22:18;2.78;;;1.48;;
10416;SDS011;62605;49.432;8.680;2022-09-03T12:24:48;1.95;;;1.27;;
10416;SDS011;62605;49.432;8.680;2022-09-03T12:27:17;1.40;;;1.30;;
10416;SDS011;62605;49.432;8.680;2022-09-03T12:29:52;1.40;;;1.30;;
10416;SDS011;62605;49.432;8.680;2022-09-03T12:32:24;1.35;;;1.25;;
10416;SDS011;62605;49.432;8.680;2022-09-03T12:34:54;1.20;;;1.10;;
10416;SDS011;62605;49.432;8.680;2022-09-03T12:37:22;2.40;;;1.10;;
10416;SDS011;62605;49.432;8.680;2022-09-03T12:39:52;1.00;;;1.00;;
10416;SDS011;62605;49.432;8.680;2022-09-03T12:42:22;1.17;;;1.10;;
10416;SDS011;62605;49.432;8.680;2022-09-03T12:44:51;1.17;;;1.10;;
10416;SDS011;62605;49.432;8.680;2022-09-03T12:47:19;1.25;;;1.17;;
10416;SDS011;62605;49.432;8.680;2022-09-03T12:49:51;0.90;;;0.90;;
10416;SDS011;62605;49.432;8.680;2022-09-03T12:52:24;1.92;;;1.20;;
10416;SDS011;62605;49.432;8.680;2022-09-03T12:54:55;1.00;;;1.00;;
10416;SDS011;62605;49.432;8.680;2022-09-03T12:57:31;3.10;;;1.33;;
10416;SDS011;62605;49.432;8.680;2022-09-03T13:00:03;1.50;;;1.40;;
10416;SDS011;62605;49.432;8.680;2022-09-03T13:02:34;2.45;;;1.17;;
10416;SDS011;62605;49.432;8.680;2022-09-03T13:05:04;1.42;;;1.33;;
10416;SDS011;62605;49.432;8.680;2022-09-03T13:07:37;1.30;;;1.20;;
10416;SDS011;62605;49.432;8.680;2022-09-03T13:10:06;2.03;;;1.83;;
10416;SDS011;62605;49.432;8.680;2022-09-03T13:12:48;2.63;;;1.67;;
10416;SDS011;62605;49.432;8.680;2022-09-03T13:15:17;1.45;;;1.35;;
10416;SDS011;62605;49.432;8.680;2022-09-03T13:17:52;1.42;;;1.30;;
10416;SDS011;62605;49.432;8.680;2022-09-03T13:20:41;1.73;;;1.63;;
10416;SDS011;62605;49.432;8.680;2022-09-03T13:23:19;2.08;;;1.88;;
10416;SDS011;62605;49.432;8.680;2022-09-03T13:26:11;1.50;;;1.40;;
10416;SDS011;62605;49.432;8.680;2022-09-03T13:28:50;1.92;;;1.83;;
10416;SDS011;62605;49.432;8.680;2022-09-03T13:31:30;1.85;;;1.70;;
10416;SDS011;62605;49.432;8.680;2022-09-03T13:34:02;2.00;;;1.58;;
10416;SDS011;62605;49.432;8.680;2022-09-03T13:36:35;1.80;;;1.70;;
10416;SDS011;62605;49.432;8.680;2022-09-03T13:39:11;1.50;;;1.40;;
10416;SDS011;62605;49.432;8.680;2022-09-03T13:41:49;2.00;;;1.77;;
10416;SDS011;62605;49.432;8.680;2022-09-03T13:44:23;2.55;;;2.05;;
10416;SDS011;62605;49.432;8.680;2022-09-03T13:47:04;2.38;;;1.80;;
10416;SDS011;62605;49.432;8.680;2022-09-03T13:49:39;1.88;;;1.77;;
10416;SDS011;62605;49.432;8.680;2022-09-03T13:52:42;2.05;;;1.95;;
10416;SDS011;62605;49.432;8.680;2022-09-03T13:55:15;2.03;;;1.83;;
10416;SDS011;62605;49.432;8.680;2022-09-03T13:57:50;1.58;;;1.48;;
10416;SDS011;62605;49.432;8.680;2022-09-03T14:00:22;2.30;;;2.10;;
10416;SDS011;62605;49.432;8.680;2022-09-03T14:02:54;2.17;;;2.03;;
10416;SDS011;62605;49.432;8.680;2022-09-03T14:05:30;2.33;;;2.03;;
10416;SDS011;62605;49.432;8.680;2022-09-03T14:08:10;2.15;;;2.00;;
10416;SDS011;62605;49.432;8.680;2022-09-03T14:10:51;3.30;;;1.70;;
10416;SDS011;62605;49.432;8.680;2022-09-03T14:13:44;2.33;;;1.90;;
10416;SDS011;62605;49.432;8.680;2022-09-03T14:16:24;2.67;;;1.95;;
10416;SDS011;62605;49.432;8.680;2022-09-03T14:18:58;2.17;;;2.08;;
10416;SDS011;62605;49.432;8.680;2022-09-03T14:21:32;3.08;;;1.85;;
10416;SDS011;62605;49.432;8.680;2022-09-03T14:24:06;3.30;;;2.60;;
10416;SDS011;62605;49.432;8.680;2022-09-03T14:26:48;3.15;;;2.17;;
10416;SDS011;62605;49.432;8.680;2022-09-03T14:29:19;2.65;;;2.03;;
10416;SDS011;62605;49.432;8.680;2022-09-03T14:31:58;3.20;;;2.90;;
10416;SDS011;62605;49.432;8.680;2022-09-03T14:34:39;2.20;;;2.00;;
10416;SDS011;62605;49.432;8.680;2022-09-03T14:37:28;2.80;;;2.20;;
10416;SDS011;62605;49.432;8.680;2022-09-03T14:40:09;4.70;;;2.38;;
10416;SDS011;62605;49.432;8.680;2022-09-03T14:42:42;2.08;;;1.98;;
10416;SDS011;62605;49.432;8.680;2022-09-03T14:45:29;1.85;;;1.67;;
10416;SDS011;62605;49.432;8.680;2022-09-03T14:48:12;3.15;;;1.90;;
10416;SDS011;62605;49.432;8.680;2022-09-03T14:51:09;2.13;;;1.95;;
10416;SDS011;62605;49.432;8.680;2022-09-03T14:56:54;2.58;;;2.30;;
10416;SDS011;62605;49.432;8.680;2022-09-03T14:59:48;2.60;;;2.00;;
10416;SDS011;62605;49.432;8.680;2022-09-03T15:05:40;2.10;;;1.90;;
10416;SDS011;62605;49.432;8.680;2022-09-03T15:08:14;2.20;;;2.00;;
10416;SDS011;62605;49.432;8.680;2022-09-03T15:10:52;2.88;;;2.42;;
10416;SDS011;62605;49.432;8.680;2022-09-03T15:13:23;2.40;;;2.20;;
10416;SDS011;62605;49.432;8.680;2022-09-03T15:16:03;3.55;;;2.45;;
10416;SDS011;62605;49.432;8.680;2022-09-03T15:18:43;6.15;;;2.67;;
10416;SDS011;62605;49.432;8.680;2022-09-03T15:21:25;3.70;;;2.33;;
10416;SDS011;62605;49.432;8.680;2022-09-03T15:24:01;2.53;;;2.33;;
10416;SDS011;62605;49.432;8.680;2022-09-03T15:26:41;2.70;;;2.50;;
10416;SDS011;62605;49.432;8.680;2022-09-03T15:29:22;3.00;;;2.72;;
10416;SDS011;62605;49.432;8.680;2022-09-03T15:32:08;3.17;;;2.83;;